createdAt,value
2018-05-14T00:01:08.334Z,80.21
2018-05-14T00:03:34.642Z,79.62
2018-05-14T00:06:00.946Z,79.51
2018-05-14T00:08:27.251Z,80.26
2018-05-14T00:10:53.554Z,80.03
2018-05-14T00:13:19.859Z,80.42
2018-05-14T00:15:46.195Z,80.66
2018-05-14T00:18:12.500Z,80.60
2018-05-14T00:20:38.803Z,81.97
2018-05-14T00:23:05.106Z,81.60
2018-05-14T00:25:31.410Z,82.01
2018-05-14T00:27:57.712Z,81.52
2018-05-14T00:30:24.021Z,81.40
2018-05-14T00:32:50.322Z,81.87
2018-05-14T00:35:16.626Z,81.56
2018-05-14T00:37:42.929Z,82.37
2018-05-14T00:40:09.330Z,83.00
2018-05-14T00:42:35.538Z,82.96
2018-05-14T00:45:01.849Z,82.48
2018-05-14T00:47:28.155Z,83.44
2018-05-14T00:49:54.463Z,83.87
2018-05-14T00:52:20.769Z,84.43
2018-05-14T00:54:47.069Z,84.09
2018-05-14T00:57:13.373Z,84.04
2018-05-14T00:59:39.674Z,84.86
2018-05-14T01:02:05.980Z,86.13
2018-05-14T01:04:32.281Z,86.81
2018-05-14T01:06:58.583Z,86.84
2018-05-14T01:09:24.881Z,86.75
2018-05-14T01:11:51.188Z,86.67
2018-05-14T01:14:17.496Z,86.87
2018-05-14T01:16:43.797Z,86.61
2018-05-14T01:19:10.143Z,86.25
2018-05-14T01:21:36.448Z,86.60
2018-05-14T01:24:02.769Z,87.00
2018-05-14T01:26:29.075Z,87.14
2018-05-14T01:28:55.420Z,86.97
2018-05-14T01:31:21.722Z,86.64
2018-05-14T01:33:48.026Z,86.69
2018-05-14T01:36:14.373Z,87.06
2018-05-14T01:38:40.715Z,87.44
2018-05-14T01:41:07.021Z,87.58
2018-05-14T01:43:33.368Z,87.81
2018-05-14T01:45:59.670Z,88.17
2018-05-14T01:48:26.005Z,88.28
2018-05-14T01:50:52.307Z,88.58
2018-05-14T01:53:18.619Z,88.24
2018-05-14T01:55:44.919Z,88.36
2018-05-14T01:58:11.221Z,88.32
2018-05-14T02:00:37.527Z,88.50
2018-05-14T02:03:03.834Z,88.33
2018-05-14T02:05:30.134Z,88.58
2018-05-14T02:07:56.438Z,88.74
2018-05-14T02:10:22.770Z,88.61
2018-05-14T02:12:49.114Z,88.43
2018-05-14T02:15:15.417Z,88.18
2018-05-14T02:17:41.723Z,87.95
2018-05-14T02:20:08.061Z,87.95
2018-05-14T02:22:34.368Z,88.17
2018-05-14T02:25:00.713Z,88.12
2018-05-14T02:27:27.053Z,88.33
2018-05-14T02:29:53.365Z,88.58
2018-05-14T02:32:19.709Z,89.40
2018-05-14T02:34:46.015Z,89.76
2018-05-14T02:37:12.333Z,89.68
2018-05-14T02:39:38.645Z,89.63
2018-05-14T02:42:04.943Z,89.08
2018-05-14T02:44:31.282Z,89.62
2018-05-14T02:46:57.585Z,89.47
2018-05-14T02:49:23.931Z,89.40
2018-05-14T02:51:50.229Z,88.62
2018-05-14T02:54:16.573Z,88.36
2018-05-14T02:56:42.878Z,88.33
2018-05-14T02:59:09.182Z,88.07
2018-05-14T03:01:35.492Z,87.99
2018-05-14T03:04:01.847Z,87.86
2018-05-14T03:06:28.147Z,86.86
2018-05-14T03:08:54.444Z,86.45
2018-05-14T03:11:20.759Z,86.30
2018-05-14T03:13:47.103Z,86.51
2018-05-14T03:16:13.446Z,86.60
2018-05-14T03:18:39.754Z,87.02
2018-05-14T03:21:06.097Z,88.10
2018-05-14T03:23:32.439Z,89.61
2018-05-14T03:25:58.737Z,90.18
2018-05-14T03:28:25.043Z,90.43
2018-05-14T03:30:51.361Z,89.96
2018-05-14T03:33:17.666Z,89.25
2018-05-14T03:35:44.009Z,88.45
2018-05-14T03:38:10.309Z,88.09
2018-05-14T03:40:36.613Z,87.93
2018-05-14T03:43:02.919Z,87.65
2018-05-14T03:45:29.230Z,87.16
2018-05-14T03:47:55.530Z,86.67
2018-05-14T03:50:21.834Z,86.18
2018-05-14T03:52:48.196Z,85.75
2018-05-14T03:55:14.489Z,85.74
2018-05-14T03:57:40.800Z,85.49
2018-05-14T04:00:07.150Z,84.79
2018-05-14T04:02:33.449Z,84.98
2018-05-14T04:04:59.757Z,84.73
2018-05-14T04:07:26.061Z,84.20
2018-05-14T04:09:52.409Z,84.46
2018-05-14T04:12:18.721Z,84.41
2018-05-14T04:14:45.011Z,84.54
2018-05-14T04:17:11.323Z,84.82
2018-05-14T04:19:37.631Z,84.57
2018-05-14T04:22:03.956Z,84.73
2018-05-14T04:24:30.277Z,84.59
2018-05-14T04:26:56.569Z,84.42
2018-05-14T04:29:22.868Z,84.48
2018-05-14T04:31:49.187Z,84.46
2018-05-14T04:34:15.491Z,84.23
2018-05-14T04:36:41.813Z,83.56
2018-05-14T04:39:08.154Z,82.75
2018-05-14T04:41:34.467Z,82.50
2018-05-14T04:44:00.815Z,82.90
2018-05-14T04:46:27.172Z,82.58
2018-05-14T04:48:53.524Z,82.57
2018-05-14T04:51:19.828Z,82.83
2018-05-14T04:53:46.119Z,82.36
2018-05-14T04:56:12.408Z,81.59
2018-05-14T04:58:38.698Z,81.15
2018-05-14T05:01:05.031Z,81.66
2018-05-14T05:03:31.359Z,81.16
2018-05-14T05:05:57.692Z,80.62
2018-05-14T05:08:24.020Z,80.00
2018-05-14T05:10:50.351Z,79.88
2018-05-14T05:13:16.634Z,80.10
2018-05-14T05:15:42.926Z,79.97
2018-05-14T05:18:09.332Z,79.80
2018-05-14T05:20:35.598Z,80.19
2018-05-14T05:23:01.885Z,79.97
2018-05-14T05:25:28.215Z,79.41
2018-05-14T05:27:54.511Z,78.96
2018-05-14T05:30:20.840Z,78.51
2018-05-14T05:32:47.169Z,78.13
2018-05-14T05:35:13.455Z,78.07
2018-05-14T05:37:39.882Z,77.82
2018-05-14T05:40:06.096Z,77.78
2018-05-14T05:42:32.430Z,78.12
2018-05-14T05:44:58.762Z,76.88
2018-05-14T05:47:25.091Z,76.91
2018-05-14T05:49:51.378Z,76.07
2018-05-14T05:52:17.669Z,75.75
2018-05-14T05:54:43.964Z,74.68
2018-05-14T05:57:10.261Z,72.95
2018-05-14T05:59:36.569Z,71.24
2018-05-14T06:02:02.860Z,72.68
2018-05-14T06:04:29.189Z,73.49
2018-05-14T06:06:55.524Z,73.35
2018-05-14T06:09:21.932Z,73.17
2018-05-14T06:11:48.152Z,71.33
2018-05-14T06:14:14.451Z,72.26
2018-05-14T06:16:40.755Z,72.68
2018-05-14T06:19:07.051Z,72.78
2018-05-14T06:21:33.348Z,72.50
2018-05-14T06:23:59.634Z,70.38
2018-05-14T06:26:25.927Z,65.77
2018-05-14T06:28:52.221Z,59.97
2018-05-14T06:31:18.508Z,60.57
2018-05-14T06:33:44.835Z,58.26
2018-05-14T06:36:11.120Z,57.39
2018-05-14T06:38:37.412Z,58.24
2018-05-14T06:41:03.698Z,57.79
2018-05-14T06:43:29.980Z,55.40
2018-05-14T06:45:56.271Z,55.06
2018-05-14T06:48:22.560Z,59.12
2018-05-14T06:50:48.849Z,56.17
2018-05-14T06:53:15.140Z,57.28
2018-05-14T06:55:41.472Z,56.13
2018-05-14T06:58:07.783Z,59.09
2018-05-14T07:00:34.068Z,59.11
2018-05-14T07:03:00.355Z,58.04
2018-05-14T07:05:26.646Z,57.60
2018-05-14T07:07:52.972Z,59.97
2018-05-14T07:10:19.261Z,61.93
2018-05-14T07:12:45.589Z,62.90
2018-05-14T07:15:11.893Z,59.56
2018-05-14T07:17:38.175Z,56.78
2018-05-14T07:20:04.468Z,53.49
2018-05-14T07:22:30.764Z,51.95
2018-05-14T07:24:57.057Z,52.97
2018-05-14T07:27:23.352Z,51.47
2018-05-14T07:29:49.643Z,49.99
2018-05-14T07:32:15.932Z,49.46
2018-05-14T07:34:42.219Z,49.07
2018-05-14T07:37:08.503Z,50.50
2018-05-14T07:39:34.804Z,50.67
2018-05-14T07:42:01.088Z,53.06
2018-05-14T07:44:27.382Z,53.12
2018-05-14T07:46:53.671Z,51.80
2018-05-14T07:49:20.063Z,50.86
2018-05-14T07:51:46.251Z,50.05
2018-05-14T07:54:12.547Z,47.82
2018-05-14T07:56:38.835Z,47.61
2018-05-14T07:59:05.125Z,47.60
2018-05-14T08:01:31.415Z,46.77
2018-05-14T08:03:57.705Z,46.66
2018-05-14T08:06:23.997Z,49.09
2018-05-14T08:08:50.294Z,49.36
2018-05-14T08:11:16.585Z,49.00
2018-05-14T08:13:42.884Z,47.93
2018-05-14T08:16:09.177Z,49.65
2018-05-14T08:18:35.470Z,49.13
2018-05-14T08:21:01.756Z,49.02
2018-05-14T08:23:28.093Z,48.42
2018-05-14T08:25:54.329Z,47.38
2018-05-14T08:28:20.623Z,46.27
2018-05-14T08:30:46.911Z,47.06
2018-05-14T08:33:13.203Z,45.83
2018-05-14T08:35:39.538Z,48.79
2018-05-14T08:38:05.831Z,48.38
2018-05-14T08:40:32.125Z,48.35
2018-05-14T08:42:58.412Z,51.21
2018-05-14T08:45:24.703Z,50.34
2018-05-14T08:47:50.995Z,53.05
2018-05-14T08:50:17.278Z,55.03
2018-05-14T08:52:43.569Z,49.69
2018-05-14T08:55:09.859Z,48.00
2018-05-14T08:57:36.200Z,47.93
2018-05-14T09:00:02.545Z,46.60
2018-05-14T09:02:28.745Z,44.91
2018-05-14T09:04:55.044Z,48.21
2018-05-14T09:07:21.335Z,48.39
2018-05-14T09:09:47.620Z,50.47
2018-05-14T09:12:13.915Z,48.21
2018-05-14T09:14:40.203Z,50.38
2018-05-14T09:17:06.532Z,48.80
2018-05-14T09:19:32.909Z,52.07
2018-05-14T09:21:59.105Z,50.89
2018-05-14T09:24:25.409Z,51.06
2018-05-14T09:26:51.692Z,50.50
2018-05-14T09:29:17.981Z,49.02
2018-05-14T09:31:44.310Z,48.46
2018-05-14T09:34:10.597Z,46.91
2018-05-14T09:36:36.884Z,47.17
2018-05-14T09:39:03.170Z,50.41
2018-05-14T09:41:29.465Z,51.95
2018-05-14T09:43:55.804Z,53.78
2018-05-14T09:46:22.097Z,53.97
2018-05-14T09:48:48.398Z,54.77
2018-05-14T09:51:14.689Z,54.11
2018-05-14T09:53:41.084Z,53.25
2018-05-14T09:56:07.319Z,52.88
2018-05-14T09:58:33.617Z,53.11
2018-05-14T10:00:59.902Z,52.98
2018-05-14T10:03:26.208Z,52.83
2018-05-14T10:05:52.502Z,53.96
2018-05-14T10:08:18.838Z,55.25
2018-05-14T10:10:45.123Z,54.94
2018-05-14T10:13:11.419Z,55.18
2018-05-14T10:15:37.706Z,55.72
2018-05-14T10:18:03.988Z,57.83
2018-05-14T10:20:30.324Z,61.11
2018-05-14T10:22:56.795Z,64.30
2018-05-14T10:25:22.916Z,65.31
2018-05-14T10:27:49.207Z,63.66
2018-05-14T10:30:15.531Z,61.60
2018-05-14T10:32:41.820Z,60.54
2018-05-14T10:35:08.154Z,61.92
2018-05-14T10:37:34.477Z,60.30
2018-05-14T10:40:00.808Z,59.99
2018-05-14T10:42:27.163Z,59.16
2018-05-14T10:44:53.427Z,59.29
2018-05-14T10:47:19.714Z,59.16
2018-05-14T10:49:46.030Z,59.60
2018-05-14T10:52:12.322Z,60.23
2018-05-14T10:54:38.608Z,60.06
2018-05-14T10:57:04.906Z,60.43
2018-05-14T10:59:31.195Z,61.39
2018-05-14T11:01:57.494Z,63.27
2018-05-14T11:04:23.795Z,66.73
2018-05-14T11:06:50.083Z,69.29
2018-05-14T11:09:16.401Z,70.81
2018-05-14T11:11:42.679Z,70.28
2018-05-14T11:14:08.981Z,70.68
2018-05-14T11:16:35.275Z,70.77
2018-05-14T11:19:01.567Z,71.25
2018-05-14T11:21:27.851Z,71.48
2018-05-14T11:23:54.145Z,72.43
2018-05-14T11:26:20.477Z,72.28
2018-05-14T11:28:46.765Z,73.52
2018-05-14T11:31:13.061Z,75.77
2018-05-14T11:33:40.424Z,73.71
2018-05-14T11:36:06.712Z,75.63
2018-05-14T11:38:33.011Z,76.42
2018-05-14T11:40:59.300Z,76.66
2018-05-14T11:43:25.596Z,77.01
2018-05-14T11:45:51.909Z,77.90
2018-05-14T11:48:18.207Z,76.24
2018-05-14T11:50:44.676Z,73.92
2018-05-14T11:53:10.923Z,72.02
2018-05-14T11:55:37.259Z,74.74
2018-05-14T11:58:03.549Z,75.90
2018-05-14T12:00:29.833Z,75.69
2018-05-14T12:02:56.163Z,75.14
2018-05-14T12:05:22.469Z,72.61
2018-05-14T12:07:48.755Z,71.56
2018-05-14T12:10:15.041Z,68.84
2018-05-14T12:12:41.343Z,66.82
2018-05-14T12:15:07.636Z,68.46
2018-05-14T12:17:33.930Z,69.16
2018-05-14T12:20:00.220Z,68.85
2018-05-14T12:22:26.512Z,65.66
2018-05-14T12:24:52.809Z,63.64
2018-05-14T12:27:19.144Z,64.08
2018-05-14T12:29:45.426Z,61.91
2018-05-14T12:32:11.754Z,60.94
2018-05-14T12:34:38.014Z,61.02
2018-05-14T12:37:04.311Z,61.53
2018-05-14T12:39:30.635Z,61.02
2018-05-14T12:41:56.927Z,58.09
2018-05-14T12:44:23.221Z,57.17
2018-05-14T12:46:49.543Z,53.95
2018-05-14T12:49:15.834Z,56.10
2018-05-14T12:51:42.130Z,57.05
2018-05-14T12:54:08.441Z,55.61
2018-05-14T12:56:34.733Z,54.05
2018-05-14T12:59:01.025Z,55.27
2018-05-14T13:01:27.339Z,61.23
2018-05-14T13:03:53.633Z,62.71
2018-05-14T13:06:19.941Z,63.00
2018-05-14T13:08:46.233Z,63.45
2018-05-14T13:11:12.535Z,63.79
2018-05-14T13:13:38.829Z,64.94
2018-05-14T13:16:05.122Z,64.66
2018-05-14T13:18:31.419Z,65.09
2018-05-14T13:20:57.717Z,65.25
2018-05-14T13:23:24.015Z,63.86
2018-05-14T13:25:50.303Z,64.21
2018-05-14T13:28:16.591Z,63.07
2018-05-14T13:30:42.880Z,62.87
2018-05-14T13:33:09.172Z,63.29
2018-05-14T13:35:35.457Z,62.39
2018-05-14T13:38:01.875Z,61.98
2018-05-14T13:40:28.066Z,60.85
2018-05-14T13:42:54.491Z,60.19
2018-05-14T13:45:20.704Z,58.97
2018-05-14T13:47:47.003Z,59.00
2018-05-14T13:50:13.290Z,59.09
2018-05-14T13:52:39.583Z,58.84
2018-05-14T13:55:05.876Z,58.19
2018-05-14T13:57:32.215Z,59.48
2018-05-14T13:59:58.513Z,59.71
2018-05-14T14:02:24.809Z,60.62
2018-05-14T14:04:51.225Z,61.28
2018-05-14T14:07:17.433Z,61.55
2018-05-14T14:09:43.778Z,61.93
2018-05-14T14:12:10.072Z,61.42
2018-05-14T14:14:36.360Z,61.49
2018-05-14T14:17:02.729Z,61.02
2018-05-14T14:19:28.936Z,60.32
2018-05-14T14:21:55.235Z,60.50
2018-05-14T14:24:21.566Z,60.45
2018-05-14T14:26:47.814Z,60.96
2018-05-14T14:29:14.121Z,61.40
2018-05-14T14:31:40.413Z,61.17
2018-05-14T14:34:06.713Z,61.52
2018-05-14T14:36:33.012Z,61.58
2018-05-14T14:38:59.313Z,61.80
2018-05-14T14:41:25.605Z,61.64
2018-05-14T14:43:51.904Z,62.55
2018-05-14T14:46:18.217Z,61.91
2018-05-14T14:48:44.487Z,61.96
2018-05-14T14:51:10.788Z,61.53
2018-05-14T14:53:37.150Z,62.18
2018-05-14T14:56:03.374Z,62.51
2018-05-14T14:58:29.659Z,62.39
2018-05-14T15:00:56.003Z,62.47
2018-05-14T15:03:22.295Z,62.40
2018-05-14T15:05:48.583Z,62.86
2018-05-14T15:08:14.870Z,63.05
2018-05-14T15:10:41.170Z,64.01
2018-05-14T15:13:07.474Z,64.06
2018-05-14T15:15:33.796Z,63.62
2018-05-14T15:18:00.059Z,63.50
2018-05-14T15:20:26.396Z,63.17
2018-05-14T15:22:52.694Z,62.46
2018-05-14T15:25:19.274Z,62.87
2018-05-14T15:27:45.559Z,61.95
2018-05-14T15:30:11.880Z,62.80
2018-05-14T15:32:38.180Z,62.98
2018-05-14T15:35:04.519Z,63.46
2018-05-14T15:37:30.827Z,63.95
2018-05-14T15:39:58.172Z,64.67
2018-05-14T15:42:24.519Z,64.90
2018-05-14T15:44:50.818Z,64.61
2018-05-14T15:47:17.276Z,64.81
2018-05-14T15:49:43.574Z,65.15
2018-05-14T15:52:09.879Z,65.47
2018-05-14T15:54:36.173Z,65.29
2018-05-14T15:57:02.646Z,65.34
2018-05-14T15:59:28.945Z,65.43
2018-05-14T16:01:55.378Z,65.69
2018-05-14T16:04:21.697Z,65.83
2018-05-14T16:06:47.988Z,66.22
2018-05-14T16:09:14.281Z,66.56
2018-05-14T16:11:40.580Z,66.39
2018-05-14T16:14:06.915Z,66.83
2018-05-14T16:16:33.215Z,67.13
2018-05-14T16:18:59.999Z,67.87
2018-05-14T16:21:26.457Z,68.43
2018-05-14T16:23:53.578Z,68.92
2018-05-14T16:26:19.925Z,69.70
2018-05-14T16:28:46.157Z,69.88
2018-05-14T16:31:12.443Z,69.86
2018-05-14T16:33:38.734Z,70.21
2018-05-14T16:36:05.035Z,70.28
2018-05-14T16:38:31.401Z,70.52
2018-05-14T16:40:57.686Z,71.10
2018-05-14T16:43:23.983Z,71.02
2018-05-14T16:45:50.276Z,71.02
2018-05-14T16:48:16.572Z,71.01
2018-05-14T16:50:42.869Z,71.17
2018-05-14T16:53:09.156Z,71.50
2018-05-14T16:55:35.462Z,71.93
2018-05-14T16:58:01.758Z,71.72
2018-05-14T17:00:28.114Z,71.43
2018-05-14T17:02:54.411Z,71.49
2018-05-14T17:05:20.705Z,71.90
2018-05-14T17:07:47.007Z,71.96
2018-05-14T17:10:13.315Z,72.33
2018-05-14T17:12:39.788Z,72.96
2018-05-14T17:15:05.935Z,72.89
2018-05-14T17:17:32.246Z,72.98
2018-05-14T17:19:58.547Z,73.46
2018-05-14T17:22:24.937Z,73.60
2018-05-14T17:24:51.275Z,73.97
2018-05-14T17:27:17.576Z,74.45
2018-05-14T17:29:43.881Z,74.52
2018-05-14T17:32:10.179Z,74.62
2018-05-14T17:34:36.467Z,74.68
2018-05-14T17:37:02.769Z,74.70
2018-05-14T17:39:29.071Z,74.90
2018-05-14T17:41:55.369Z,75.11
2018-05-14T17:44:21.725Z,75.36
2018-05-14T17:46:48.012Z,76.23
2018-05-14T17:49:14.307Z,76.32
2018-05-14T17:51:40.627Z,76.44
2018-05-14T17:54:06.917Z,77.15
2018-05-14T17:56:33.203Z,76.86
2018-05-14T17:58:59.491Z,77.33
2018-05-14T18:01:25.823Z,78.48
2018-05-14T18:03:52.120Z,79.97
2018-05-14T18:06:18.412Z,80.15
2018-05-14T18:08:45.872Z,80.21
2018-05-14T18:11:11.000Z,80.75
2018-05-14T18:13:37.289Z,80.52
2018-05-14T18:16:03.592Z,79.51
2018-05-14T18:18:29.890Z,79.23
2018-05-14T18:20:56.188Z,79.56
2018-05-14T18:23:22.490Z,80.26
2018-05-14T18:25:48.811Z,79.42
2018-05-14T18:28:15.101Z,79.25
2018-05-14T18:30:41.400Z,78.99
2018-05-14T18:33:07.729Z,80.23
2018-05-14T18:35:34.036Z,80.41
2018-05-14T18:38:00.324Z,80.22
2018-05-14T18:40:27.472Z,80.42
2018-05-14T18:42:53.808Z,79.08
2018-05-14T18:45:20.113Z,80.06
2018-05-14T18:47:46.436Z,79.53
2018-05-14T18:50:12.732Z,80.08
2018-05-14T18:52:39.030Z,80.42
2018-05-14T18:55:05.326Z,80.53
2018-05-14T18:57:31.636Z,80.18
2018-05-14T18:59:57.974Z,80.78
2018-05-14T19:02:24.267Z,81.04
2018-05-14T19:04:50.554Z,80.74
2018-05-14T19:07:16.845Z,80.29
2018-05-14T19:09:43.131Z,80.28
2018-05-14T19:12:09.474Z,80.90
2018-05-14T19:14:35.766Z,81.38
2018-05-14T19:17:02.094Z,81.25
2018-05-14T19:19:28.389Z,81.58
2018-05-14T19:21:54.803Z,81.32
2018-05-14T19:24:21.865Z,81.67
2018-05-14T19:26:48.210Z,82.18
2018-05-14T19:29:14.521Z,82.18
2018-05-14T19:31:40.819Z,82.14
2018-05-14T19:34:07.124Z,82.14
2018-05-14T19:36:33.412Z,82.24
2018-05-14T19:38:59.705Z,82.39
2018-05-14T19:41:26.000Z,82.86
2018-05-14T19:43:52.293Z,83.24
2018-05-14T19:46:18.584Z,83.43
2018-05-14T19:48:44.886Z,83.50
2018-05-14T19:51:11.176Z,83.44
2018-05-14T19:53:37.464Z,83.87
2018-05-14T19:56:04.077Z,83.67
2018-05-14T19:58:30.356Z,83.69
2018-05-14T20:00:56.660Z,83.66
2018-05-14T20:03:23.013Z,83.65
2018-05-14T20:05:49.251Z,83.73
2018-05-14T20:08:15.668Z,84.15
2018-05-14T20:10:41.907Z,84.25
2018-05-14T20:13:08.262Z,83.98
2018-05-14T20:15:34.661Z,83.93
2018-05-14T20:18:00.900Z,84.32
2018-05-14T20:20:27.257Z,84.23
2018-05-14T20:22:53.536Z,83.71
2018-05-14T20:25:19.856Z,83.62
2018-05-14T20:27:46.150Z,83.96
2018-05-14T20:30:12.447Z,83.61
2018-05-14T20:32:38.759Z,83.98
2018-05-14T20:35:05.069Z,83.75
2018-05-14T20:37:31.379Z,83.76
2018-05-14T20:39:57.670Z,83.65
2018-05-14T20:42:23.960Z,83.80
2018-05-14T20:44:50.268Z,83.56
2018-05-14T20:47:16.597Z,83.32
2018-05-14T20:49:42.892Z,83.77
2018-05-14T20:52:09.257Z,83.85
2018-05-14T20:54:35.519Z,83.97
2018-05-14T20:57:01.851Z,84.03
2018-05-14T20:59:28.147Z,83.89
2018-05-14T21:01:54.442Z,84.02
2018-05-14T21:04:20.772Z,84.66
2018-05-14T21:06:47.063Z,84.86
2018-05-14T21:09:13.431Z,85.39
2018-05-14T21:11:39.716Z,85.67
2018-05-14T21:14:06.011Z,85.68
2018-05-14T21:16:32.297Z,85.51
2018-05-14T21:18:58.605Z,85.36
2018-05-14T21:21:24.941Z,85.13
2018-05-14T21:23:51.228Z,85.29
2018-05-14T21:26:17.524Z,84.96
2018-05-14T21:28:43.822Z,84.55
2018-05-14T21:31:10.167Z,84.41
2018-05-14T21:33:36.401Z,84.63
2018-05-14T21:36:02.691Z,84.83
2018-05-14T21:38:28.980Z,85.57
2018-05-14T21:40:55.316Z,85.74
2018-05-14T21:43:21.606Z,85.97
2018-05-14T21:45:47.938Z,86.22
2018-05-14T21:48:14.272Z,86.08
2018-05-14T21:50:40.566Z,85.92
2018-05-14T21:53:06.854Z,85.67
2018-05-14T21:55:33.136Z,85.88
2018-05-14T21:57:59.430Z,85.70
2018-05-14T22:00:25.721Z,86.15
2018-05-14T22:02:52.065Z,86.08
2018-05-14T22:05:18.360Z,86.48
2018-05-14T22:07:44.654Z,86.45
2018-05-14T22:10:10.951Z,86.99
2018-05-14T22:12:37.245Z,87.33
2018-05-14T22:15:03.568Z,87.43
2018-05-14T22:17:29.860Z,87.40
2018-05-14T22:19:56.153Z,87.46
2018-05-14T22:22:22.493Z,87.35
2018-05-14T22:24:48.796Z,87.27
2018-05-14T22:27:15.081Z,87.22
2018-05-14T22:29:41.379Z,87.46
2018-05-14T22:32:07.664Z,87.54
2018-05-14T22:34:33.993Z,87.69
2018-05-14T22:37:00.285Z,87.89
2018-05-14T22:39:26.578Z,87.76
2018-05-14T22:41:52.879Z,87.53
2018-05-14T22:44:19.211Z,87.69
2018-05-14T22:46:45.499Z,88.06
2018-05-14T22:49:11.835Z,88.43
2018-05-14T22:51:38.130Z,88.38
2018-05-14T22:54:04.463Z,88.31
2018-05-14T22:56:30.808Z,87.51
2018-05-14T22:58:57.105Z,87.83
2018-05-14T23:01:23.395Z,88.03
2018-05-14T23:03:49.687Z,88.05
2018-05-14T23:06:15.973Z,88.09
2018-05-14T23:08:42.285Z,88.16
2018-05-14T23:11:08.655Z,87.81
2018-05-14T23:13:34.951Z,87.73
2018-05-14T23:16:01.246Z,87.82
2018-05-14T23:18:27.564Z,88.06
2018-05-14T23:20:53.857Z,88.12
2018-05-14T23:23:20.182Z,87.91
2018-05-14T23:25:46.505Z,87.79
2018-05-14T23:28:12.829Z,87.62
2018-05-14T23:30:39.148Z,87.43
2018-05-14T23:33:05.448Z,87.39
2018-05-14T23:35:31.750Z,87.55
2018-05-14T23:37:58.044Z,87.96
2018-05-14T23:40:24.342Z,88.15
2018-05-14T23:42:50.658Z,88.11
2018-05-14T23:45:16.955Z,87.75
2018-05-14T23:47:43.245Z,87.70
2018-05-14T23:50:09.570Z,87.81
2018-05-14T23:52:35.870Z,87.83
2018-05-14T23:55:02.168Z,87.74
2018-05-14T23:57:28.460Z,87.54
2018-05-14T23:59:54.772Z,87.00
